Time;durP1;ratioP1;P1;durP2;ratioP2;P2;SDS_P1;SDS_P2;PMS_P1;PMS_P2;Temp;Humidity;BMP_temperature;BMP_pressure;BME280_temperature;BME280_humidity;BME280_pressure;Samples;Min_cycle;Max_cycle;Signal;HPM_P1;HPM_P2
2022/10/28 00:00:21;;;;;;;18.95;5.72;;;17.80;99.90;;;;;;5082857;28;21064;-63
2022/10/28 00:02:47;;;;;;;18.02;5.43;;;17.80;99.90;;;;;;5082821;28;20042;-64
2022/10/28 00:05:13;;;;;;;14.02;5.53;;;17.90;99.90;;;;;;5064136;28;20690;-64
2022/10/28 00:07:38;;;;;;;14.45;5.15;;;17.90;99.90;;;;;;5081040;28;20698;-64
2022/10/28 00:10:05;;;;;;;15.45;5.25;;;17.90;99.90;;;;;;5080533;28;20364;-64
2022/10/28 00:12:34;;;;;;;15.10;5.72;;;18.00;99.90;;;;;;5083093;28;20097;-64
2022/10/28 00:14:59;;;;;;;12.45;5.28;;;18.00;99.90;;;;;;5083271;28;20493;-63
2022/10/28 00:17:25;;;;;;;10.70;4.85;;;17.90;99.90;;;;;;5082017;28;20215;-64
2022/10/28 00:19:50;;;;;;;13.85;5.40;;;17.90;99.90;;;;;;5081876;28;20127;-63
2022/10/28 00:22:16;;;;;;;13.98;4.97;;;17.90;99.90;;;;;;5064070;28;20564;-64
2022/10/28 00:24:41;;;;;;;17.40;4.80;;;17.90;99.90;;;;;;5081765;28;20750;-64
2022/10/28 00:27:07;;;;;;;14.38;5.07;;;17.90;99.90;;;;;;5076242;28;21056;-63
2022/10/28 00:29:32;;;;;;;10.20;4.93;;;17.90;99.90;;;;;;5079745;28;20689;-63
2022/10/28 00:31:58;;;;;;;11.43;5.03;;;17.90;99.90;;;;;;5079212;28;20028;-64
2022/10/28 00:34:24;;;;;;;11.93;4.65;;;17.90;99.90;;;;;;5079050;28;20123;-63
2022/10/28 00:36:49;;;;;;;16.55;5.25;;;18.00;99.90;;;;;;5079786;28;20036;-64
2022/10/28 00:39:23;;;;;;;10.57;4.88;;;18.00;99.90;;;;;;5089149;28;20072;-64
2022/10/28 00:41:55;;;;;;;12.65;4.82;;;17.90;99.90;;;;;;5080195;28;20039;-63
2022/10/28 00:44:39;;;;;;;11.90;5.00;;;17.90;99.90;;;;;;5078126;28;20414;-64
2022/10/28 00:47:13;;;;;;;13.93;4.82;;;17.90;99.90;;;;;;5079118;28;20440;-63
2022/10/28 00:49:41;;;;;;;10.68;4.95;;;17.90;99.90;;;;;;5076924;28;20055;-64
2022/10/28 00:52:12;;;;;;;9.95;5.05;;;17.90;99.90;;;;;;5069750;28;20036;-64
2022/10/28 00:54:38;;;;;;;9.75;4.35;;;17.90;99.90;;;;;;5062791;28;20048;-64
2022/10/28 00:57:14;;;;;;;19.85;5.15;;;17.90;99.90;;;;;;5087372;28;20040;-64
2022/10/28 00:59:44;;;;;;;13.77;4.95;;;17.80;99.90;;;;;;5076004;28;20052;-63
2022/10/28 01:02:10;;;;;;;14.45;4.80;;;17.90;99.90;;;;;;5090366;28;20038;-64
2022/10/28 01:04:37;;;;;;;11.75;4.70;;;17.90;99.90;;;;;;5086687;28;20033;-63
2022/10/28 01:07:02;;;;;;;13.02;4.65;;;17.80;99.90;;;;;;5082452;28;20052;-64
2022/10/28 01:09:28;;;;;;;12.38;4.85;;;17.80;99.90;;;;;;5077130;28;20867;-64
2022/10/28 01:12:07;;;;;;;12.60;5.00;;;17.90;99.90;;;;;;5078331;28;20047;-64
2022/10/28 01:14:52;;;;;;;16.20;5.00;;;17.90;99.90;;;;;;5084617;28;20051;-64
2022/10/28 01:17:49;;;;;;;18.58;5.05;;;17.80;99.90;;;;;;5080469;28;20060;-63
2022/10/28 01:20:35;;;;;;;16.52;4.70;;;17.90;99.90;;;;;;5076867;28;20043;-63
2022/10/28 01:23:13;;;;;;;9.50;4.82;;;17.80;99.90;;;;;;5089458;28;20039;-63
2022/10/28 01:26:16;;;;;;;16.88;5.10;;;17.70;99.90;;;;;;5059084;28;20528;-63
2022/10/28 01:28:47;;;;;;;9.77;4.77;;;17.70;99.90;;;;;;5077423;28;20055;-63
2022/10/28 01:31:21;;;;;;;16.25;4.88;;;17.70;99.90;;;;;;5054683;28;20097;-64
2022/10/28 01:33:50;;;;;;;12.20;4.68;;;17.70;99.90;;;;;;5075447;28;20135;-63
2022/10/28 01:36:41;;;;;;;11.10;4.82;;;17.70;99.90;;;;;;5072429;28;20032;-63
2022/10/28 01:39:32;;;;;;;15.23;5.10;;;17.70;99.90;;;;;;5079454;28;20074;-64
2022/10/28 01:42:34;;;;;;;17.40;4.65;;;17.70;99.90;;;;;;5057059;28;20033;-64
2022/10/28 01:45:12;;;;;;;10.65;4.32;;;17.70;99.90;;;;;;5079443;28;20089;-64
2022/10/28 01:47:59;;;;;;;10.10;4.93;;;17.60;99.90;;;;;;5077030;28;20048;-64
2022/10/28 01:50:31;;;;;;;10.05;4.35;;;17.60;99.90;;;;;;5077047;28;20032;-63
2022/10/28 01:53:02;;;;;;;19.73;4.95;;;17.60;99.90;;;;;;5083630;28;20090;-63
2022/10/28 01:55:41;;;;;;;11.30;4.70;;;17.60;99.90;;;;;;5084697;28;20032;-64
2022/10/28 01:58:10;;;;;;;12.02;5.03;;;17.60;99.90;;;;;;5081199;28;20055;-63
2022/10/28 02:00:36;;;;;;;13.35;4.55;;;17.60;99.90;;;;;;5084011;28;20067;-64
2022/10/28 02:03:05;;;;;;;11.38;5.20;;;17.50;99.90;;;;;;5087066;28;20058;-64
2022/10/28 02:05:44;;;;;;;14.30;5.00;;;17.50;99.90;;;;;;5053840;28;20033;-64
2022/10/28 02:08:19;;;;;;;17.02;5.28;;;17.50;99.90;;;;;;5055805;28;20037;-64
2022/10/28 02:11:00;;;;;;;19.55;5.55;;;17.50;99.90;;;;;;5055237;28;20048;-63
2022/10/28 02:13:38;;;;;;;12.23;4.53;;;17.50;99.90;;;;;;5061102;28;20440;-64
2022/10/28 02:16:29;;;;;;;14.77;5.10;;;17.40;99.90;;;;;;5052109;28;20064;-64
2022/10/28 02:19:14;;;;;;;15.48;5.32;;;17.40;99.90;;;;;;5049095;28;20033;-64
2022/10/28 02:22:12;;;;;;;12.40;4.85;;;17.40;99.90;;;;;;5064542;28;20106;-64
2022/10/28 02:24:40;;;;;;;10.98;4.70;;;17.30;99.90;;;;;;5058656;28;20086;-66
2022/10/28 02:27:46;;;;;;;13.07;4.82;;;17.30;99.90;;;;;;5062645;28;20044;-64
2022/10/28 02:30:16;;;;;;;16.83;5.30;;;17.40;99.90;;;;;;5061850;28;20045;-64
2022/10/28 02:32:46;;;;;;;11.48;5.28;;;17.30;99.90;;;;;;5064465;28;20107;-64
2022/10/28 02:35:17;;;;;;;15.77;6.00;;;17.30;99.90;;;;;;5072300;28;20028;-64
2022/10/28 02:37:44;;;;;;;13.07;5.05;;;17.30;99.90;;;;;;5059989;28;20591;-64
2022/10/28 02:40:17;;;;;;;12.32;5.00;;;17.30;99.90;;;;;;5061610;28;20480;-64
2022/10/28 02:42:48;;;;;;;12.48;5.10;;;17.30;99.90;;;;;;5059637;28;20041;-63
2022/10/28 02:45:23;;;;;;;14.05;5.32;;;17.20;99.90;;;;;;5060848;28;20058;-63
2022/10/28 02:47:55;;;;;;;12.60;5.20;;;17.20;99.90;;;;;;5063409;28;20492;-64
2022/10/28 02:50:27;;;;;;;16.05;5.25;;;17.20;99.90;;;;;;5062885;28;20059;-65
2022/10/28 02:52:57;;;;;;;13.93;5.30;;;17.20;99.90;;;;;;5062825;28;20037;-64
2022/10/28 02:55:28;;;;;;;14.27;5.18;;;17.20;99.90;;;;;;5062918;28;20523;-64
2022/10/28 02:57:56;;;;;;;13.10;5.28;;;17.20;99.90;;;;;;5063232;28;20044;-64
2022/10/28 03:00:23;;;;;;;13.38;5.25;;;17.20;99.90;;;;;;5061524;28;20510;-64
2022/10/28 03:02:49;;;;;;;17.85;5.90;;;17.20;99.90;;;;;;5061533;28;21064;-64
2022/10/28 03:05:15;;;;;;;15.50;5.30;;;17.20;99.90;;;;;;5063067;28;20223;-64
2022/10/28 03:07:41;;;;;;;18.63;5.45;;;17.20;99.90;;;;;;5063171;28;20024;-64
2022/10/28 03:10:07;;;;;;;15.93;5.63;;;17.20;99.90;;;;;;5057760;28;20067;-64
2022/10/28 03:12:32;;;;;;;13.68;5.50;;;17.10;99.90;;;;;;5062972;28;20056;-64
2022/10/28 03:14:58;;;;;;;15.52;5.22;;;17.10;99.90;;;;;;5062072;28;20106;-64
2022/10/28 03:17:23;;;;;;;13.95;5.03;;;17.10;99.90;;;;;;5056542;28;20180;-64
2022/10/28 03:19:49;;;;;;;11.73;5.40;;;17.10;99.90;;;;;;5061868;28;20033;-64
2022/10/28 03:22:14;;;;;;;12.85;5.28;;;17.10;99.90;;;;;;5061895;28;20136;-64
2022/10/28 03:24:40;;;;;;;14.20;6.07;;;17.10;99.90;;;;;;5062657;28;20051;-64
2022/10/28 03:27:06;;;;;;;15.57;5.85;;;17.00;99.90;;;;;;5061952;28;20043;-64
2022/10/28 03:29:31;;;;;;;12.02;5.10;;;17.00;99.90;;;;;;5062004;28;20039;-64
2022/10/28 03:31:57;;;;;;;14.95;5.38;;;17.00;99.90;;;;;;5062709;28;20032;-64
2022/10/28 03:34:22;;;;;;;11.20;5.40;;;17.00;99.90;;;;;;5062886;28;20029;-64
2022/10/28 03:36:48;;;;;;;16.77;5.32;;;17.00;99.90;;;;;;5061676;28;20040;-64
2022/10/28 03:39:13;;;;;;;10.52;5.15;;;17.00;99.90;;;;;;5061299;28;20115;-64
2022/10/28 03:41:39;;;;;;;12.57;5.20;;;16.90;99.90;;;;;;5059569;28;20056;-64
2022/10/28 03:44:05;;;;;;;17.17;5.63;;;16.90;99.90;;;;;;5057211;28;20031;-64
2022/10/28 03:46:31;;;;;;;15.55;5.50;;;16.90;99.90;;;;;;5057714;28;20423;-64
2022/10/28 03:48:56;;;;;;;16.45;5.47;;;16.90;99.90;;;;;;5062048;28;20020;-64
2022/10/28 03:51:22;;;;;;;15.27;5.05;;;16.90;99.90;;;;;;5058649;28;20025;-64
2022/10/28 03:53:47;;;;;;;16.58;5.63;;;16.90;99.90;;;;;;5060666;28;20045;-64
2022/10/28 03:56:13;;;;;;;13.40;5.70;;;16.80;99.90;;;;;;5060011;28;20025;-64
2022/10/28 03:58:38;;;;;;;15.80;6.18;;;16.80;99.90;;;;;;5061264;28;20021;-64
2022/10/28 04:01:04;;;;;;;12.18;5.15;;;16.80;99.90;;;;;;5060923;28;20051;-64
2022/10/28 04:03:29;;;;;;;14.25;5.53;;;16.90;99.90;;;;;;5060569;28;20036;-64
2022/10/28 04:05:55;;;;;;;12.68;5.43;;;16.80;99.90;;;;;;5061414;28;20029;-64
2022/10/28 04:08:20;;;;;;;12.88;5.35;;;16.90;99.90;;;;;;5060521;28;20036;-64
2022/10/28 04:10:47;;;;;;;14.98;5.22;;;16.80;99.90;;;;;;5060020;28;20036;-64
2022/10/28 04:13:14;;;;;;;17.42;5.53;;;16.80;99.90;;;;;;5059767;28;20036;-64
2022/10/28 04:15:39;;;;;;;11.10;5.35;;;16.70;99.90;;;;;;5057499;28;20040;-64
2022/10/28 04:18:05;;;;;;;18.73;5.53;;;16.80;99.90;;;;;;5061115;28;20528;-64
2022/10/28 04:20:31;;;;;;;17.75;5.72;;;16.70;99.90;;;;;;5060637;28;20040;-64
2022/10/28 04:22:57;;;;;;;14.02;5.47;;;16.80;99.90;;;;;;5061074;28;20044;-64
2022/10/28 04:25:24;;;;;;;17.27;5.82;;;16.80;99.90;;;;;;5060586;28;20416;-64
2022/10/28 04:27:49;;;;;;;12.38;5.43;;;16.70;99.90;;;;;;5057345;28;20062;-64
2022/10/28 04:30:15;;;;;;;15.23;5.75;;;16.70;99.90;;;;;;5059928;28;20060;-64
2022/10/28 04:32:41;;;;;;;14.88;5.78;;;16.70;99.90;;;;;;5061595;28;20021;-64
2022/10/28 04:35:09;;;;;;;14.48;5.50;;;16.80;99.90;;;;;;5059505;28;21199;-65
2022/10/28 04:37:35;;;;;;;13.15;5.43;;;16.70;99.90;;;;;;5059679;28;20039;-64
2022/10/28 04:40:00;;;;;;;14.23;5.53;;;16.70;99.90;;;;;;5060089;28;20044;-65
2022/10/28 04:42:26;;;;;;;15.77;5.57;;;16.70;99.90;;;;;;5057519;28;20037;-65
2022/10/28 04:44:52;;;;;;;18.00;5.32;;;16.60;99.90;;;;;;5060061;28;20033;-64
2022/10/28 04:47:18;;;;;;;16.88;5.85;;;16.60;99.90;;;;;;5058319;28;20481;-64
2022/10/28 04:49:44;;;;;;;16.35;5.63;;;16.60;99.90;;;;;;5059803;28;20040;-64
2022/10/28 04:52:10;;;;;;;14.05;5.82;;;16.60;99.90;;;;;;5061001;28;20102;-64
2022/10/28 04:54:35;;;;;;;13.98;5.20;;;16.50;99.90;;;;;;5061158;28;20044;-64
2022/10/28 04:57:01;;;;;;;14.88;6.07;;;16.50;99.90;;;;;;5060347;28;20048;-64
2022/10/28 04:59:27;;;;;;;13.73;5.53;;;16.50;99.90;;;;;;5057678;28;20902;-64
2022/10/28 05:01:53;;;;;;;13.60;5.63;;;16.50;99.90;;;;;;5056912;28;20035;-63
2022/10/28 05:04:18;;;;;;;17.65;6.65;;;16.50;99.90;;;;;;5060405;28;20025;-64
2022/10/28 05:06:44;;;;;;;16.65;6.00;;;16.50;99.90;;;;;;5061728;28;20028;-64
2022/10/28 05:09:10;;;;;;;18.33;6.53;;;16.60;99.90;;;;;;5058428;28;20120;-64
2022/10/28 05:11:36;;;;;;;18.15;6.55;;;16.60;99.90;;;;;;5060608;28;20490;-64
2022/10/28 05:14:01;;;;;;;15.00;6.13;;;16.60;99.90;;;;;;5053642;28;20114;-64
2022/10/28 05:16:27;;;;;;;15.88;6.03;;;16.60;99.90;;;;;;5059421;28;20484;-64
2022/10/28 05:18:52;;;;;;;20.10;6.55;;;16.60;99.90;;;;;;5058898;28;20063;-64
2022/10/28 05:21:18;;;;;;;16.52;5.93;;;16.70;99.90;;;;;;5059914;28;20041;-64
2022/10/28 05:23:43;;;;;;;19.48;6.10;;;16.70;99.90;;;;;;5059840;28;20021;-64
2022/10/28 05:26:09;;;;;;;16.65;6.22;;;16.70;99.90;;;;;;5061627;28;20169;-64
2022/10/28 05:28:34;;;;;;;15.02;5.72;;;16.60;99.90;;;;;;5064798;28;20580;-64
2022/10/28 05:31:00;;;;;;;21.33;7.35;;;16.60;99.90;;;;;;5064562;28;20443;-64
2022/10/28 05:33:25;;;;;;;19.27;6.25;;;16.70;99.90;;;;;;5060994;28;20118;-64
2022/10/28 05:35:51;;;;;;;15.27;5.72;;;16.70;99.90;;;;;;5056808;28;20063;-64
2022/10/28 05:38:17;;;;;;;18.30;5.93;;;16.70;99.90;;;;;;5064233;28;20040;-64
2022/10/28 05:40:42;;;;;;;18.58;5.93;;;16.70;99.90;;;;;;5062537;28;20039;-64
2022/10/28 05:43:09;;;;;;;18.23;6.90;;;16.70;99.90;;;;;;5063431;28;20044;-64
2022/10/28 05:45:34;;;;;;;18.15;6.38;;;16.70;99.90;;;;;;5056865;28;20028;-64
2022/10/28 05:48:00;;;;;;;14.70;6.05;;;16.70;99.90;;;;;;5063257;28;20661;-64
2022/10/28 05:50:26;;;;;;;16.75;6.20;;;16.70;99.90;;;;;;5062273;28;20322;-64
2022/10/28 05:52:54;;;;;;;17.67;5.90;;;16.70;99.90;;;;;;5060111;28;20036;-64
2022/10/28 05:55:22;;;;;;;13.98;5.80;;;16.70;99.90;;;;;;5061044;28;20055;-65
2022/10/28 05:57:49;;;;;;;18.52;6.18;;;16.70;99.90;;;;;;5063822;28;20388;-64
2022/10/28 06:00:16;;;;;;;17.75;6.05;;;16.70;99.90;;;;;;5054265;28;20370;-64
2022/10/28 06:02:42;;;;;;;21.35;6.15;;;16.70;99.90;;;;;;5054203;28;20032;-65
2022/10/28 06:05:09;;;;;;;16.83;5.88;;;16.70;99.90;;;;;;5054470;28;20041;-64
2022/10/28 06:07:35;;;;;;;15.95;6.07;;;16.70;99.90;;;;;;5062177;28;20046;-64
2022/10/28 06:10:01;;;;;;;19.30;5.47;;;16.70;99.90;;;;;;5058146;28;20044;-65
2022/10/28 06:12:27;;;;;;;13.45;5.88;;;16.70;99.90;;;;;;5060887;28;20662;-64
2022/10/28 06:14:52;;;;;;;14.48;5.78;;;16.70;99.90;;;;;;5059454;28;20094;-64
2022/10/28 06:17:18;;;;;;;15.32;6.10;;;16.70;99.90;;;;;;5061514;28;20060;-64
2022/10/28 06:19:44;;;;;;;16.88;6.25;;;16.70;99.90;;;;;;5062919;28;20044;-64
2022/10/28 06:22:10;;;;;;;18.40;5.93;;;16.70;99.90;;;;;;5062307;28;20037;-64
2022/10/28 06:24:35;;;;;;;18.25;6.15;;;16.70;99.90;;;;;;5064724;28;20565;-64
2022/10/28 06:27:01;;;;;;;18.70;5.97;;;16.70;99.90;;;;;;5061288;28;20048;-65
2022/10/28 06:29:26;;;;;;;16.90;5.93;;;16.70;99.90;;;;;;5062501;28;20123;-64
2022/10/28 06:31:52;;;;;;;15.90;6.25;;;16.70;99.90;;;;;;5060503;28;20464;-64
2022/10/28 06:34:18;;;;;;;22.23;7.10;;;16.70;99.90;;;;;;5062805;28;20132;-64
2022/10/28 06:36:44;;;;;;;16.27;6.47;;;16.70;99.90;;;;;;5068902;28;20043;-65
2022/10/28 06:39:09;;;;;;;20.45;6.00;;;16.70;99.90;;;;;;5054456;28;20024;-64
2022/10/28 06:41:35;;;;;;;14.32;5.55;;;16.70;99.90;;;;;;5063782;28;20025;-65
2022/10/28 06:44:01;;;;;;;15.57;6.40;;;16.80;99.90;;;;;;5056362;28;20617;-64
2022/10/28 06:46:27;;;;;;;19.08;6.00;;;16.80;99.90;;;;;;5062275;28;20040;-65
2022/10/28 06:48:53;;;;;;;14.35;5.38;;;16.80;99.90;;;;;;5061239;28;20381;-65
2022/10/28 06:51:19;;;;;;;16.35;5.80;;;16.70;99.90;;;;;;5060651;28;20047;-65
2022/10/28 06:53:49;;;;;;;16.80;6.13;;;16.70;99.90;;;;;;5059810;28;20048;-65
2022/10/28 06:56:14;;;;;;;14.32;5.88;;;16.80;99.90;;;;;;5057417;28;20287;-65
2022/10/28 06:58:41;;;;;;;18.70;6.55;;;16.80;99.90;;;;;;5060786;28;20811;-64
2022/10/28 07:01:06;;;;;;;14.25;5.80;;;16.90;99.90;;;;;;5050975;28;20033;-64
2022/10/28 07:03:32;;;;;;;20.77;6.10;;;16.90;99.90;;;;;;5059634;28;20025;-65
2022/10/28 07:05:58;;;;;;;22.25;5.95;;;16.90;99.90;;;;;;5059173;28;20037;-65
2022/10/28 07:08:25;;;;;;;45.30;29.77;;;16.90;99.90;;;;;;5061448;28;20041;-66
2022/10/28 07:10:58;;;;;;;18.77;7.00;;;17.00;99.90;;;;;;5055584;28;20116;-65
2022/10/28 07:13:24;;;;;;;;;;;17.10;99.90;;;;;;5056259;28;20039;-64
2022/10/28 07:15:54;;;;;;;13.07;5.78;;;17.10;99.90;;;;;;5055008;28;20003;-65
2022/10/28 07:18:21;;;;;;;16.67;5.88;;;17.10;99.90;;;;;;5056305;28;20040;-65
2022/10/28 07:20:47;;;;;;;16.50;6.20;;;17.10;99.90;;;;;;5062164;28;20036;-65
2022/10/28 07:23:12;;;;;;;18.25;5.68;;;17.10;99.90;;;;;;5056150;28;20454;-66
2022/10/28 07:25:38;;;;;;;15.40;6.13;;;17.20;99.90;;;;;;5061417;28;20086;-65
2022/10/28 07:28:03;;;;;;;14.05;5.03;;;17.20;99.90;;;;;;5050195;28;20128;-65
2022/10/28 07:30:30;;;;;;;17.30;5.57;;;17.20;99.90;;;;;;5055722;28;20048;-65
2022/10/28 07:32:59;;;;;;;12.90;5.30;;;17.30;99.90;;;;;;5056607;28;20048;-65
2022/10/28 07:35:29;;;;;;;18.50;5.70;;;17.30;99.90;;;;;;5056849;28;20033;-65
2022/10/28 07:37:54;;;;;;;20.45;5.80;;;17.30;99.90;;;;;;5052313;28;20032;-64
2022/10/28 07:40:20;;;;;;;17.10;5.70;;;17.40;99.90;;;;;;5049188;28;20032;-65
2022/10/28 07:42:46;;;;;;;16.63;5.68;;;17.50;99.90;;;;;;5053195;28;20032;-64
2022/10/28 07:45:12;;;;;;;21.88;6.43;;;17.50;99.90;;;;;;5055865;28;20357;-65
2022/10/28 07:47:38;;;;;;;13.00;5.20;;;17.50;99.90;;;;;;5061526;28;20040;-65
2022/10/28 07:50:06;;;;;;;18.65;5.75;;;17.50;99.90;;;;;;5059233;28;20036;-65
2022/10/28 07:52:32;;;;;;;23.98;6.20;;;17.50;99.90;;;;;;5060220;28;20110;-63
2022/10/28 07:54:57;;;;;;;16.83;5.97;;;17.50;99.90;;;;;;5056463;28;20040;-66
2022/10/28 07:57:23;;;;;;;16.27;5.35;;;17.60;99.90;;;;;;5053762;28;20036;-64
2022/10/28 07:59:49;;;;;;;13.48;5.72;;;17.60;99.90;;;;;;5058348;28;20170;-65
2022/10/28 08:02:19;;;;;;;17.77;5.60;;;17.70;99.90;;;;;;5060841;28;20400;-65
2022/10/28 08:04:45;;;;;;;15.15;5.90;;;17.70;99.90;;;;;;5060429;28;20040;-66
2022/10/28 08:07:12;;;;;;;19.85;5.53;;;17.70;99.90;;;;;;5055180;28;20049;-65
2022/10/28 08:09:37;;;;;;;21.75;5.95;;;17.70;99.90;;;;;;5056304;28;20032;-66
2022/10/28 08:12:04;;;;;;;21.10;6.25;;;17.80;99.90;;;;;;5059214;28;20567;-66
2022/10/28 08:14:29;;;;;;;13.50;5.28;;;17.90;99.90;;;;;;5058294;28;20116;-66
2022/10/28 08:16:55;;;;;;;13.02;5.20;;;17.80;99.90;;;;;;5054427;28;20153;-65
2022/10/28 08:19:21;;;;;;;18.50;5.72;;;17.90;99.90;;;;;;5059227;28;20035;-65
2022/10/28 08:21:46;;;;;;;14.57;5.35;;;17.90;99.90;;;;;;5060042;28;20033;-65
2022/10/28 08:24:12;;;;;;;17.38;6.07;;;18.00;99.90;;;;;;5056723;28;20479;-66
2022/10/28 08:26:38;;;;;;;15.52;5.70;;;18.10;99.90;;;;;;5050899;28;20581;-66
2022/10/28 08:29:03;;;;;;;14.05;5.45;;;18.10;99.90;;;;;;5056078;28;20052;-65
2022/10/28 08:31:31;;;;;;;18.38;6.07;;;18.20;99.90;;;;;;5056442;28;20484;-66
2022/10/28 08:33:56;;;;;;;15.88;5.55;;;18.20;99.90;;;;;;5059087;28;20036;-66
2022/10/28 08:36:22;;;;;;;13.55;5.60;;;18.30;99.90;;;;;;5054700;28;20439;-66
2022/10/28 08:38:50;;;;;;;19.25;5.85;;;18.30;99.90;;;;;;5059333;28;20032;-66
2022/10/28 08:41:37;;;;;;;18.67;5.55;;;18.40;99.90;;;;;;5058220;28;20033;-66
2022/10/28 08:44:11;;;;;;;16.90;5.10;;;18.40;99.90;;;;;;5053899;28;20048;-66
2022/10/28 08:46:49;;;;;;;16.67;5.47;;;18.40;99.90;;;;;;5052312;28;20522;-66
2022/10/28 08:49:18;;;;;;;16.63;5.45;;;18.50;99.90;;;;;;5056096;28;20040;-66
2022/10/28 08:51:55;;;;;;;14.77;5.32;;;18.60;99.90;;;;;;5054293;28;20028;-66
2022/10/28 08:54:46;;;;;;;19.30;5.85;;;18.60;99.90;;;;;;5056972;28;21664;-66
2022/10/28 08:57:22;;;;;;;11.10;4.85;;;18.70;99.90;;;;;;5058674;28;20553;-66
2022/10/28 08:59:50;;;;;;;17.40;5.20;;;18.80;99.90;;;;;;5057451;28;20147;-66
2022/10/28 09:02:24;;;;;;;16.08;5.30;;;18.80;99.90;;;;;;5053646;28;20031;-66
2022/10/28 09:05:15;;;;;;;16.08;5.45;;;18.80;99.90;;;;;;5059746;28;20028;-66
2022/10/28 09:07:40;;;;;;;17.85;5.25;;;18.90;99.90;;;;;;5073878;28;20043;-65
2022/10/28 09:10:06;;;;;;;19.52;5.50;;;19.00;99.90;;;;;;5072831;28;20064;-65
2022/10/28 09:13:02;;;;;;;17.55;5.10;;;19.00;99.90;;;;;;5077984;28;20131;-66
2022/10/28 09:15:40;;;;;;;16.73;5.07;;;19.10;99.90;;;;;;5079284;28;20108;-65
2022/10/28 09:18:23;;;;;;;59.35;41.08;;;19.10;99.90;;;;;;5078420;28;20116;-66
2022/10/28 09:20:56;;;;;;;15.32;5.15;;;;;;;;;;5078763;28;20050;-66
2022/10/28 09:23:23;;;;;;;;;;;18.30;99.90;;;;;;5076093;28;20458;-66
2022/10/28 09:26:09;;;;;;;16.88;5.25;;;19.60;99.90;;;;;;5072802;28;20343;-65
2022/10/28 09:28:55;;;;;;;18.42;5.05;;;19.60;99.90;;;;;;5074328;28;20032;-66
2022/10/28 09:31:34;;;;;;;18.55;4.95;;;19.60;99.90;;;;;;5074613;28;20048;-66
2022/10/28 09:34:32;;;;;;;19.42;5.30;;;19.70;99.90;;;;;;5078014;28;20127;-64
2022/10/28 09:37:11;;;;;;;13.23;4.72;;;19.60;99.90;;;;;;5055707;28;20554;-65
2022/10/28 09:39:47;;;;;;;16.23;5.35;;;19.60;99.90;;;;;;5078280;28;20340;-64
2022/10/28 09:42:19;;;;;;;14.95;4.80;;;19.60;99.90;;;;;;5075997;28;20130;-64
2022/10/28 09:44:52;;;;;;;17.05;4.70;;;19.60;99.90;;;;;;5079192;28;20101;-64
2022/10/28 09:47:22;;;;;;;16.23;4.82;;;19.70;99.90;;;;;;5075620;28;20028;-64
2022/10/28 09:49:50;;;;;;;14.50;4.72;;;19.80;99.90;;;;;;5076407;28;20565;-64
2022/10/28 09:52:23;;;;;;;15.27;4.70;;;19.70;99.90;;;;;;5079539;28;20042;-64
2022/10/28 09:54:53;;;;;;;21.80;5.13;;;19.90;99.90;;;;;;5075041;28;20263;-64
2022/10/28 09:57:20;;;;;;;14.50;5.55;;;19.80;99.90;;;;;;5070208;28;20084;-65
2022/10/28 09:59:46;;;;;;;15.00;4.78;;;19.90;99.90;;;;;;5056739;28;20032;-64
2022/10/28 10:02:32;;;;;;;12.57;4.90;;;20.00;99.90;;;;;;5078560;28;20032;-65
2022/10/28 10:05:00;;;;;;;18.45;5.13;;;20.10;99.90;;;;;;5078967;28;20100;-64
2022/10/28 10:07:42;;;;;;;17.90;5.10;;;20.00;99.90;;;;;;5078352;28;21794;-65
2022/10/28 10:10:18;;;;;;;20.65;5.20;;;20.10;99.90;;;;;;5077303;28;20125;-65
2022/10/28 10:12:45;;;;;;;16.35;5.13;;;20.10;99.90;;;;;;5059612;28;20035;-64
2022/10/28 10:15:18;;;;;;;15.93;5.15;;;20.10;99.90;;;;;;5081794;28;20032;-64
2022/10/28 10:17:46;;;;;;;19.23;4.93;;;20.20;99.90;;;;;;5065204;28;20036;-65
2022/10/28 10:20:17;;;;;;;17.75;4.93;;;20.20;99.90;;;;;;5080323;28;20142;-64
2022/10/28 10:22:45;;;;;;;17.80;5.30;;;20.20;99.90;;;;;;5061008;28;20307;-64
2022/10/28 10:25:17;;;;;;;35.13;15.90;;;20.20;99.90;;;;;;5075536;28;20516;-65
2022/10/28 10:28:03;;;;;;;22.60;5.88;;;20.30;99.90;;;;;;5082336;28;20043;-65
2022/10/28 10:30:52;;;;;;;11.60;4.60;;;20.40;99.90;;;;;;5055457;28;20100;-63
2022/10/28 10:33:23;;;;;;;16.40;4.93;;;20.30;99.90;;;;;;5064884;28;20785;-62
2022/10/28 10:35:59;;;;;;;15.73;4.88;;;20.30;99.90;;;;;;5083904;28;20057;-62
2022/10/28 10:38:26;;;;;;;17.15;4.68;;;20.40;99.90;;;;;;5081049;28;20044;-61
2022/10/28 10:40:52;;;;;;;17.15;4.95;;;20.60;99.90;;;;;;5076540;28;20268;-62
2022/10/28 10:43:31;;;;;;;14.05;4.60;;;20.60;99.90;;;;;;5084390;28;20410;-62
2022/10/28 10:46:06;;;;;;;14.75;5.30;;;20.60;99.90;;;;;;5080107;28;20044;-62
2022/10/28 10:48:35;;;;;;;22.13;5.07;;;20.60;99.90;;;;;;5058689;28;20123;-63
2022/10/28 10:51:24;;;;;;;13.35;4.85;;;20.70;99.90;;;;;;5062622;28;20032;-63
2022/10/28 10:53:54;;;;;;;18.10;5.13;;;20.80;99.90;;;;;;5048824;28;20032;-62
2022/10/28 10:56:28;;;;;;;26.15;5.22;;;20.90;99.90;;;;;;5062491;28;20471;-63
2022/10/28 10:58:57;;;;;;;18.25;5.43;;;20.90;99.90;;;;;;5058561;28;20028;-63
2022/10/28 11:01:26;;;;;;;18.88;5.40;;;20.90;99.90;;;;;;5060743;28;20135;-61
2022/10/28 11:03:56;;;;;;;15.50;5.00;;;20.90;99.90;;;;;;5060605;28;20407;-62
2022/10/28 11:06:29;;;;;;;21.67;5.57;;;20.90;99.90;;;;;;5060906;28;20036;-61
2022/10/28 11:08:58;;;;;;;17.10;5.07;;;20.90;99.90;;;;;;5062354;28;20032;-63
2022/10/28 11:11:31;;;;;;;17.88;5.03;;;20.90;99.90;;;;;;5060868;28;20032;-62
2022/10/28 11:14:11;;;;;;;19.65;5.38;;;21.10;99.90;;;;;;5057801;28;20036;-62
2022/10/28 11:16:54;;;;;;;16.75;5.10;;;21.10;99.90;;;;;;5062971;28;20391;-61
2022/10/28 11:19:34;;;;;;;18.02;5.18;;;21.20;99.90;;;;;;5060765;28;20063;-62
2022/10/28 11:22:12;;;;;;;17.50;4.80;;;21.10;99.90;;;;;;5061199;28;20472;-62
2022/10/28 11:25:09;;;;;;;24.35;5.75;;;21.10;99.90;;;;;;5057665;28;20036;-62
2022/10/28 11:28:06;;;;;;;18.38;5.28;;;21.20;99.90;;;;;;5077765;28;20035;-62
2022/10/28 11:30:59;;;;;;;14.60;4.43;;;21.20;99.90;;;;;;5080329;28;20039;-62
2022/10/28 11:33:46;;;;;;;15.60;4.90;;;21.20;99.90;;;;;;5077462;28;20016;-62
2022/10/28 11:37:00;;;;;;;16.42;4.90;;;21.20;99.90;;;;;;5081504;28;20073;-63
2022/10/28 11:39:41;;;;;;;19.17;4.93;;;21.20;99.90;;;;;;5007644;28;20033;-62
2022/10/28 11:42:25;;;;;;;18.50;5.38;;;21.20;99.90;;;;;;5073961;28;21008;-63
2022/10/28 11:45:23;;;;;;;14.73;5.13;;;21.20;99.90;;;;;;5082333;28;20172;-63
2022/10/28 11:48:01;;;;;;;15.85;4.88;;;21.30;99.90;;;;;;5078454;28;20571;-63
2022/10/28 11:51:05;;;;;;;16.77;4.88;;;21.40;99.90;;;;;;5083967;28;20407;-62
2022/10/28 11:53:55;;;;;;;19.00;4.40;;;21.40;99.90;;;;;;5084670;28;20494;-63
2022/10/28 11:56:37;;;;;;;13.45;4.70;;;21.40;99.90;;;;;;5079401;28;21039;-63
2022/10/28 11:59:11;;;;;;;15.05;4.72;;;21.40;99.90;;;;;;5082759;28;20107;-63
2022/10/28 12:01:44;;;;;;;13.43;4.38;;;21.40;99.90;;;;;;5076783;28;20063;-62
2022/10/28 12:04:24;;;;;;;14.05;4.63;;;21.50;99.90;;;;;;5080867;28;20091;-62
2022/10/28 12:07:17;;;;;;;15.00;4.53;;;21.50;99.90;;;;;;5062808;28;20063;-63
2022/10/28 12:10:18;;;;;;;17.42;4.45;;;21.60;99.90;;;;;;5077037;28;20374;-62
2022/10/28 12:12:51;;;;;;;14.70;4.82;;;21.70;99.90;;;;;;5060259;28;20021;-63
2022/10/28 12:15:29;;;;;;;19.15;5.25;;;21.70;99.90;;;;;;5078748;28;20036;-62
2022/10/28 12:18:07;;;;;;;22.38;4.63;;;21.60;99.90;;;;;;5081441;28;20180;-62
2022/10/28 12:20:45;;;;;;;17.95;4.90;;;21.70;99.90;;;;;;5071475;28;20052;-62
2022/10/28 12:23:18;;;;;;;16.13;4.70;;;21.70;99.90;;;;;;5080542;28;20036;-63
2022/10/28 12:25:48;;;;;;;13.50;4.70;;;21.80;99.90;;;;;;5088094;28;20088;-61
2022/10/28 12:28:48;;;;;;;15.25;4.88;;;21.70;99.90;;;;;;5074263;28;20464;-62
2022/10/28 12:31:25;;;;;;;13.63;4.40;;;21.70;99.90;;;;;;5078828;28;20491;-62
2022/10/28 12:34:09;;;;;;;16.60;4.65;;;21.80;99.90;;;;;;5061404;28;20552;-63
2022/10/28 12:37:02;;;;;;;14.13;4.57;;;21.90;99.90;;;;;;5057445;28;20024;-64
2022/10/28 12:39:42;;;;;;;14.35;4.22;;;21.90;99.90;;;;;;5048348;28;20090;-63
2022/10/28 12:42:27;;;;;;;16.65;4.43;;;21.90;99.90;;;;;;5055721;28;20017;-62
2022/10/28 12:44:57;;;;;;;13.25;4.43;;;22.10;99.90;;;;;;5060522;28;20055;-62
2022/10/28 12:47:26;;;;;;;17.23;4.75;;;22.10;99.90;;;;;;5056002;28;20130;-61
2022/10/28 12:49:59;;;;;;;22.70;5.10;;;22.10;99.90;;;;;;5057738;28;20033;-63
2022/10/28 12:52:35;;;;;;;17.55;5.45;;;22.30;99.90;;;;;;5060388;28;20116;-62
2022/10/28 12:55:13;;;;;;;15.23;4.97;;;22.30;99.90;;;;;;5055863;28;20128;-63
2022/10/28 12:57:45;;;;;;;19.05;4.75;;;22.30;99.90;;;;;;5056715;28;20329;-63
2022/10/28 13:00:21;;;;;;;76.18;47.72;;;22.20;99.90;;;;;;5052226;28;20037;-63